Hauptseite
METAR-TAF:

METAR-TAF

Flughäfen :

Militärflugplatz Emmen

Emmen, Schweiz

Breite: 47-05-32N, Länge: 8-18-16E, Höhe: 426 m

Beobachtung

Neuester Wetterbericht von vor 29 Minuten, um 03:50 UTC
Wind 1 kt aus Ost
Temperatur -2°C
Luftfeuchtigkeit 93%
Luftdruck 1017 hPa
Sichtweite: 4000 m
Leicht bewölkt in der Höhe von 900 ft
Aufgelockert bewölkt in der Höhe von 9300 ft
Geschlossene Wolkendecke in der Höhe von 12000 ft
feuchter Dunst

METAR: LSME 210350Z AUTO 08001KT 4000NDV BR FEW009 SCT093 OVC120 M02/M03 Q1017 RMK

Zeit: 05:19 (04:19 UTC)


TAF: fehlend

Wetterbeobachtungen und Prognosen von mehr als 4000 Flughäfen (METAR und TAF Bericht).

Die verfügbaren Stationen werden durch gelbe und rote Markierungen auf der Karte dargestellt.

Führen Sie die Maus auf sie, um den Namen der Station zu sehen.

Darauf klicken, um die Beobachtung von Wetterbeobachtungen und Prognosen zu sehen.

Um die Karte zu ändern : klicken Sie auf den grünen Tasten mit einem schwarzen Kreuz Zum Vergrößern, auf den grünen Button mit einem Gedankenstrich zu verkleinern, oder auf die grünen Pfeile für benachbarte Karten.


METAR-TAF: